sensor_id;sensor_type;location;lat;lon;timestamp;P1;durP1;ratioP1;P2;durP2;ratioP2
52894;SDS011;38759;53.396;6.722;2023-12-22T00:00:53;36.88;;;5.20;;
52894;SDS011;38759;53.396;6.722;2023-12-22T00:03:19;27.70;;;3.50;;
52894;SDS011;38759;53.396;6.722;2023-12-22T00:05:44;15.98;;;1.42;;
52894;SDS011;38759;53.396;6.722;2023-12-22T00:08:10;15.95;;;2.20;;
52894;SDS011;38759;53.396;6.722;2023-12-22T00:10:36;11.77;;;1.80;;
52894;SDS011;38759;53.396;6.722;2023-12-22T00:13:02;21.30;;;3.10;;
52894;SDS011;38759;53.396;6.722;2023-12-22T00:15:27;23.15;;;3.33;;
52894;SDS011;38759;53.396;6.722;2023-12-22T00:17:53;27.27;;;3.70;;
52894;SDS011;38759;53.396;6.722;2023-12-22T00:20:19;27.20;;;3.35;;
52894;SDS011;38759;53.396;6.722;2023-12-22T00:22:45;33.35;;;4.82;;
52894;SDS011;38759;53.396;6.722;2023-12-22T00:25:10;36.90;;;4.75;;
52894;SDS011;38759;53.396;6.722;2023-12-22T00:27:36;30.27;;;3.95;;
52894;SDS011;38759;53.396;6.722;2023-12-22T00:30:02;26.05;;;3.95;;
52894;SDS011;38759;53.396;6.722;2023-12-22T00:32:28;32.08;;;4.53;;
52894;SDS011;38759;53.396;6.722;2023-12-22T00:34:54;24.42;;;4.20;;
52894;SDS011;38759;53.396;6.722;2023-12-22T00:37:21;29.25;;;4.15;;
52894;SDS011;38759;53.396;6.722;2023-12-22T00:39:47;33.35;;;5.10;;
52894;SDS011;38759;53.396;6.722;2023-12-22T00:42:13;27.80;;;3.35;;
52894;SDS011;38759;53.396;6.722;2023-12-22T00:44:38;13.20;;;2.20;;
52894;SDS011;38759;53.396;6.722;2023-12-22T00:47:05;16.10;;;2.42;;
52894;SDS011;38759;53.396;6.722;2023-12-22T00:49:31;12.85;;;1.70;;
52894;SDS011;38759;53.396;6.722;2023-12-22T00:51:56;19.33;;;3.45;;
52894;SDS011;38759;53.396;6.722;2023-12-22T00:54:22;20.77;;;3.13;;
52894;SDS011;38759;53.396;6.722;2023-12-22T00:56:48;21.55;;;3.10;;
52894;SDS011;38759;53.396;6.722;2023-12-22T00:59:13;16.67;;;3.55;;
52894;SDS011;38759;53.396;6.722;2023-12-22T01:01:39;31.40;;;3.60;;
52894;SDS011;38759;53.396;6.722;2023-12-22T01:04:05;32.58;;;3.47;;
52894;SDS011;38759;53.396;6.722;2023-12-22T01:06:30;36.58;;;5.13;;
52894;SDS011;38759;53.396;6.722;2023-12-22T01:09:02;26.80;;;3.28;;
52894;SDS011;38759;53.396;6.722;2023-12-22T01:11:27;26.45;;;3.55;;
52894;SDS011;38759;53.396;6.722;2023-12-22T01:13:53;38.45;;;4.40;;
52894;SDS011;38759;53.396;6.722;2023-12-22T01:16:19;23.58;;;4.22;;
52894;SDS011;38759;53.396;6.722;2023-12-22T01:18:47;32.15;;;4.07;;
52894;SDS011;38759;53.396;6.722;2023-12-22T01:21:13;28.60;;;4.32;;
52894;SDS011;38759;53.396;6.722;2023-12-22T01:23:39;32.13;;;4.03;;
52894;SDS011;38759;53.396;6.722;2023-12-22T01:26:05;18.85;;;3.45;;
52894;SDS011;38759;53.396;6.722;2023-12-22T01:28:30;27.95;;;3.28;;
52894;SDS011;38759;53.396;6.722;2023-12-22T01:30:56;29.10;;;3.58;;
52894;SDS011;38759;53.396;6.722;2023-12-22T01:33:22;25.98;;;4.35;;
52894;SDS011;38759;53.396;6.722;2023-12-22T01:35:48;34.05;;;3.95;;
52894;SDS011;38759;53.396;6.722;2023-12-22T01:38:13;19.88;;;2.80;;
52894;SDS011;38759;53.396;6.722;2023-12-22T01:40:39;33.22;;;4.38;;
52894;SDS011;38759;53.396;6.722;2023-12-22T01:43:05;30.75;;;3.78;;
52894;SDS011;38759;53.396;6.722;2023-12-22T01:45:31;38.65;;;4.82;;
52894;SDS011;38759;53.396;6.722;2023-12-22T01:47:56;27.90;;;3.17;;
52894;SDS011;38759;53.396;6.722;2023-12-22T01:50:22;18.77;;;2.53;;
52894;SDS011;38759;53.396;6.722;2023-12-22T01:52:49;21.67;;;3.22;;
52894;SDS011;38759;53.396;6.722;2023-12-22T01:55:15;28.52;;;3.58;;
52894;SDS011;38759;53.396;6.722;2023-12-22T01:57:42;17.08;;;2.92;;
52894;SDS011;38759;53.396;6.722;2023-12-22T02:00:09;35.47;;;4.72;;
52894;SDS011;38759;53.396;6.722;2023-12-22T02:02:36;20.48;;;3.58;;
52894;SDS011;38759;53.396;6.722;2023-12-22T02:05:03;22.30;;;2.33;;
52894;SDS011;38759;53.396;6.722;2023-12-22T02:07:31;19.98;;;2.17;;
52894;SDS011;38759;53.396;6.722;2023-12-22T02:09:57;18.40;;;2.50;;
52894;SDS011;38759;53.396;6.722;2023-12-22T02:12:23;15.27;;;2.50;;
52894;SDS011;38759;53.396;6.722;2023-12-22T02:14:49;18.17;;;2.25;;
52894;SDS011;38759;53.396;6.722;2023-12-22T02:17:23;19.50;;;2.63;;
52894;SDS011;38759;53.396;6.722;2023-12-22T02:20:11;21.30;;;3.30;;
52894;SDS011;38759;53.396;6.722;2023-12-22T02:22:36;19.50;;;3.35;;
52894;SDS011;38759;53.396;6.722;2023-12-22T02:25:02;20.15;;;2.90;;
52894;SDS011;38759;53.396;6.722;2023-12-22T02:27:33;19.27;;;2.85;;
52894;SDS011;38759;53.396;6.722;2023-12-22T02:30:12;23.63;;;3.58;;
52894;SDS011;38759;53.396;6.722;2023-12-22T02:32:56;26.92;;;3.10;;
52894;SDS011;38759;53.396;6.722;2023-12-22T02:35:26;23.02;;;2.75;;
52894;SDS011;38759;53.396;6.722;2023-12-22T02:37:54;24.08;;;4.38;;
52894;SDS011;38759;53.396;6.722;2023-12-22T02:40:22;30.42;;;4.40;;
52894;SDS011;38759;53.396;6.722;2023-12-22T02:42:50;23.40;;;3.33;;
52894;SDS011;38759;53.396;6.722;2023-12-22T02:45:20;18.45;;;2.53;;
52894;SDS011;38759;53.396;6.722;2023-12-22T02:47:46;30.60;;;4.03;;
52894;SDS011;38759;53.396;6.722;2023-12-22T02:50:13;20.30;;;2.92;;
52894;SDS011;38759;53.396;6.722;2023-12-22T02:52:40;39.00;;;4.53;;
52894;SDS011;38759;53.396;6.722;2023-12-22T02:55:06;32.45;;;4.10;;
52894;SDS011;38759;53.396;6.722;2023-12-22T02:57:32;23.63;;;2.92;;
52894;SDS011;38759;53.396;6.722;2023-12-22T02:59:58;7.15;;;1.77;;
52894;SDS011;38759;53.396;6.722;2023-12-22T03:02:24;11.63;;;1.85;;
52894;SDS011;38759;53.396;6.722;2023-12-22T03:04:49;11.18;;;1.90;;
52894;SDS011;38759;53.396;6.722;2023-12-22T03:07:15;14.30;;;2.17;;
52894;SDS011;38759;53.396;6.722;2023-12-22T03:09:41;21.33;;;2.92;;
52894;SDS011;38759;53.396;6.722;2023-12-22T03:12:08;26.35;;;3.05;;
52894;SDS011;38759;53.396;6.722;2023-12-22T03:14:34;27.33;;;3.13;;
52894;SDS011;38759;53.396;6.722;2023-12-22T03:17:00;40.13;;;3.55;;
52894;SDS011;38759;53.396;6.722;2023-12-22T03:19:30;30.15;;;3.03;;
52894;SDS011;38759;53.396;6.722;2023-12-22T03:21:56;22.17;;;2.92;;
52894;SDS011;38759;53.396;6.722;2023-12-22T03:24:23;19.92;;;2.70;;
52894;SDS011;38759;53.396;6.722;2023-12-22T03:26:49;26.65;;;3.33;;
52894;SDS011;38759;53.396;6.722;2023-12-22T03:29:16;36.25;;;4.05;;
52894;SDS011;38759;53.396;6.722;2023-12-22T03:31:42;36.33;;;4.47;;
52894;SDS011;38759;53.396;6.722;2023-12-22T03:34:08;32.45;;;4.13;;
52894;SDS011;38759;53.396;6.722;2023-12-22T03:36:34;14.88;;;2.63;;
52894;SDS011;38759;53.396;6.722;2023-12-22T03:38:59;17.38;;;3.08;;
52894;SDS011;38759;53.396;6.722;2023-12-22T03:41:25;35.92;;;4.40;;
52894;SDS011;38759;53.396;6.722;2023-12-22T03:43:50;33.38;;;3.92;;
52894;SDS011;38759;53.396;6.722;2023-12-22T03:46:16;26.30;;;3.53;;
52894;SDS011;38759;53.396;6.722;2023-12-22T03:48:42;26.38;;;3.72;;
52894;SDS011;38759;53.396;6.722;2023-12-22T03:51:07;41.97;;;3.92;;
52894;SDS011;38759;53.396;6.722;2023-12-22T03:53:35;34.22;;;4.43;;
52894;SDS011;38759;53.396;6.722;2023-12-22T03:56:01;25.98;;;3.25;;
52894;SDS011;38759;53.396;6.722;2023-12-22T03:58:27;14.23;;;2.50;;
52894;SDS011;38759;53.396;6.722;2023-12-22T04:00:54;17.88;;;3.92;;
52894;SDS011;38759;53.396;6.722;2023-12-22T04:03:20;25.90;;;3.00;;
52894;SDS011;38759;53.396;6.722;2023-12-22T04:05:46;30.35;;;4.18;;
52894;SDS011;38759;53.396;6.722;2023-12-22T04:08:11;27.42;;;3.65;;
52894;SDS011;38759;53.396;6.722;2023-12-22T04:10:37;25.67;;;2.70;;
52894;SDS011;38759;53.396;6.722;2023-12-22T04:13:03;33.83;;;2.95;;
52894;SDS011;38759;53.396;6.722;2023-12-22T04:15:28;16.83;;;2.42;;
52894;SDS011;38759;53.396;6.722;2023-12-22T04:17:54;27.65;;;4.63;;
52894;SDS011;38759;53.396;6.722;2023-12-22T04:20:20;23.95;;;3.70;;
52894;SDS011;38759;53.396;6.722;2023-12-22T04:22:46;19.83;;;3.40;;
52894;SDS011;38759;53.396;6.722;2023-12-22T04:25:11;39.13;;;5.75;;
52894;SDS011;38759;53.396;6.722;2023-12-22T04:27:37;33.03;;;3.50;;
52894;SDS011;38759;53.396;6.722;2023-12-22T04:30:03;20.60;;;2.83;;
52894;SDS011;38759;53.396;6.722;2023-12-22T04:32:29;19.35;;;2.97;;
52894;SDS011;38759;53.396;6.722;2023-12-22T04:34:54;27.95;;;4.15;;
52894;SDS011;38759;53.396;6.722;2023-12-22T04:37:20;25.25;;;3.60;;
52894;SDS011;38759;53.396;6.722;2023-12-22T04:39:46;26.52;;;3.33;;
52894;SDS011;38759;53.396;6.722;2023-12-22T04:42:11;23.60;;;2.90;;
52894;SDS011;38759;53.396;6.722;2023-12-22T04:44:37;28.52;;;3.45;;
52894;SDS011;38759;53.396;6.722;2023-12-22T04:47:03;25.98;;;3.60;;
52894;SDS011;38759;53.396;6.722;2023-12-22T04:49:28;25.17;;;2.90;;
52894;SDS011;38759;53.396;6.722;2023-12-22T04:51:54;26.70;;;3.70;;
52894;SDS011;38759;53.396;6.722;2023-12-22T04:54:20;23.45;;;3.17;;
52894;SDS011;38759;53.396;6.722;2023-12-22T04:56:45;25.25;;;3.17;;
52894;SDS011;38759;53.396;6.722;2023-12-22T04:59:11;22.10;;;3.88;;
52894;SDS011;38759;53.396;6.722;2023-12-22T05:01:37;30.27;;;3.42;;
52894;SDS011;38759;53.396;6.722;2023-12-22T05:04:02;37.72;;;3.35;;
52894;SDS011;38759;53.396;6.722;2023-12-22T05:06:28;26.05;;;3.53;;
52894;SDS011;38759;53.396;6.722;2023-12-22T05:08:54;22.83;;;2.90;;
52894;SDS011;38759;53.396;6.722;2023-12-22T05:11:21;41.60;;;4.00;;
52894;SDS011;38759;53.396;6.722;2023-12-22T05:13:47;28.23;;;2.97;;
52894;SDS011;38759;53.396;6.722;2023-12-22T05:16:13;19.00;;;3.08;;
52894;SDS011;38759;53.396;6.722;2023-12-22T05:18:39;21.05;;;2.88;;
52894;SDS011;38759;53.396;6.722;2023-12-22T05:21:04;27.15;;;3.28;;
52894;SDS011;38759;53.396;6.722;2023-12-22T05:23:30;21.83;;;3.28;;
52894;SDS011;38759;53.396;6.722;2023-12-22T05:25:56;39.60;;;4.72;;
52894;SDS011;38759;53.396;6.722;2023-12-22T05:28:22;29.05;;;4.05;;
52894;SDS011;38759;53.396;6.722;2023-12-22T05:30:47;35.72;;;3.70;;
52894;SDS011;38759;53.396;6.722;2023-12-22T05:33:13;26.83;;;3.70;;
52894;SDS011;38759;53.396;6.722;2023-12-22T05:35:39;34.63;;;4.10;;
52894;SDS011;38759;53.396;6.722;2023-12-22T05:38:05;30.50;;;5.05;;
52894;SDS011;38759;53.396;6.722;2023-12-22T05:40:31;27.98;;;3.30;;
52894;SDS011;38759;53.396;6.722;2023-12-22T05:42:57;23.48;;;3.60;;
52894;SDS011;38759;53.396;6.722;2023-12-22T05:45:24;31.90;;;4.75;;
52894;SDS011;38759;53.396;6.722;2023-12-22T05:47:50;31.40;;;4.60;;
52894;SDS011;38759;53.396;6.722;2023-12-22T05:50:16;37.35;;;4.05;;
52894;SDS011;38759;53.396;6.722;2023-12-22T05:52:42;27.75;;;3.78;;
52894;SDS011;38759;53.396;6.722;2023-12-22T05:55:09;32.00;;;4.70;;
52894;SDS011;38759;53.396;6.722;2023-12-22T05:57:35;34.35;;;4.13;;
52894;SDS011;38759;53.396;6.722;2023-12-22T06:00:01;20.67;;;3.38;;
52894;SDS011;38759;53.396;6.722;2023-12-22T06:02:32;30.90;;;4.63;;
52894;SDS011;38759;53.396;6.722;2023-12-22T06:04:57;27.92;;;3.70;;
52894;SDS011;38759;53.396;6.722;2023-12-22T06:07:23;27.75;;;3.50;;
52894;SDS011;38759;53.396;6.722;2023-12-22T06:09:49;23.13;;;3.28;;
52894;SDS011;38759;53.396;6.722;2023-12-22T06:12:15;23.98;;;2.30;;
52894;SDS011;38759;53.396;6.722;2023-12-22T06:14:41;26.80;;;3.40;;
52894;SDS011;38759;53.396;6.722;2023-12-22T06:17:06;32.38;;;3.60;;
52894;SDS011;38759;53.396;6.722;2023-12-22T06:19:32;30.58;;;3.20;;
52894;SDS011;38759;53.396;6.722;2023-12-22T06:22:00;26.90;;;3.05;;
52894;SDS011;38759;53.396;6.722;2023-12-22T06:24:25;20.83;;;3.10;;
52894;SDS011;38759;53.396;6.722;2023-12-22T06:26:51;26.35;;;4.22;;
52894;SDS011;38759;53.396;6.722;2023-12-22T06:29:17;27.25;;;3.33;;
52894;SDS011;38759;53.396;6.722;2023-12-22T06:31:42;30.00;;;3.67;;
52894;SDS011;38759;53.396;6.722;2023-12-22T06:34:08;27.85;;;4.75;;
52894;SDS011;38759;53.396;6.722;2023-12-22T06:36:34;27.63;;;3.45;;
52894;SDS011;38759;53.396;6.722;2023-12-22T06:39:00;25.85;;;3.33;;
52894;SDS011;38759;53.396;6.722;2023-12-22T06:41:29;20.67;;;3.00;;
52894;SDS011;38759;53.396;6.722;2023-12-22T06:43:56;21.77;;;2.92;;
52894;SDS011;38759;53.396;6.722;2023-12-22T06:46:22;16.25;;;2.67;;
52894;SDS011;38759;53.396;6.722;2023-12-22T06:48:51;22.40;;;3.13;;
52894;SDS011;38759;53.396;6.722;2023-12-22T06:53:47;26.15;;;3.25;;
52894;SDS011;38759;53.396;6.722;2023-12-22T06:56:26;21.80;;;2.75;;
52894;SDS011;38759;53.396;6.722;2023-12-22T06:58:53;25.08;;;2.75;;
52894;SDS011;38759;53.396;6.722;2023-12-22T07:01:27;21.52;;;2.90;;
52894;SDS011;38759;53.396;6.722;2023-12-22T07:03:53;23.00;;;3.75;;
52894;SDS011;38759;53.396;6.722;2023-12-22T07:06:20;20.50;;;2.50;;
52894;SDS011;38759;53.396;6.722;2023-12-22T07:11:55;22.40;;;3.53;;
52894;SDS011;38759;53.396;6.722;2023-12-22T07:14:21;26.83;;;2.88;;
52894;SDS011;38759;53.396;6.722;2023-12-22T07:16:47;17.33;;;1.63;;
52894;SDS011;38759;53.396;6.722;2023-12-22T07:19:12;10.18;;;1.50;;
52894;SDS011;38759;53.396;6.722;2023-12-22T07:21:39;18.35;;;2.05;;
52894;SDS011;38759;53.396;6.722;2023-12-22T07:24:05;18.88;;;2.00;;
52894;SDS011;38759;53.396;6.722;2023-12-22T07:26:31;16.73;;;2.63;;
52894;SDS011;38759;53.396;6.722;2023-12-22T07:28:57;12.07;;;2.28;;
52894;SDS011;38759;53.396;6.722;2023-12-22T07:31:23;22.85;;;2.85;;
52894;SDS011;38759;53.396;6.722;2023-12-22T07:33:49;19.55;;;2.03;;
52894;SDS011;38759;53.396;6.722;2023-12-22T07:36:15;13.13;;;2.15;;
52894;SDS011;38759;53.396;6.722;2023-12-22T07:38:41;19.63;;;2.25;;
52894;SDS011;38759;53.396;6.722;2023-12-22T07:41:07;20.60;;;1.90;;
52894;SDS011;38759;53.396;6.722;2023-12-22T07:43:33;12.15;;;1.90;;
52894;SDS011;38759;53.396;6.722;2023-12-22T07:45:58;27.60;;;3.15;;
52894;SDS011;38759;53.396;6.722;2023-12-22T07:48:24;24.50;;;2.97;;
52894;SDS011;38759;53.396;6.722;2023-12-22T07:50:50;15.02;;;2.63;;
52894;SDS011;38759;53.396;6.722;2023-12-22T07:53:15;25.23;;;3.63;;
52894;SDS011;38759;53.396;6.722;2023-12-22T07:55:41;10.55;;;2.00;;
52894;SDS011;38759;53.396;6.722;2023-12-22T07:58:08;10.43;;;1.65;;
52894;SDS011;38759;53.396;6.722;2023-12-22T08:00:34;16.58;;;1.70;;
52894;SDS011;38759;53.396;6.722;2023-12-22T08:03:00;12.70;;;1.67;;
52894;SDS011;38759;53.396;6.722;2023-12-22T08:05:25;17.65;;;3.35;;
52894;SDS011;38759;53.396;6.722;2023-12-22T08:07:51;24.27;;;2.67;;
52894;SDS011;38759;53.396;6.722;2023-12-22T08:10:20;27.80;;;2.63;;
52894;SDS011;38759;53.396;6.722;2023-12-22T08:12:46;20.83;;;2.20;;
52894;SDS011;38759;53.396;6.722;2023-12-22T08:15:12;25.08;;;2.60;;
52894;SDS011;38759;53.396;6.722;2023-12-22T08:17:45;18.52;;;2.17;;
52894;SDS011;38759;53.396;6.722;2023-12-22T08:20:15;22.23;;;3.30;;
52894;SDS011;38759;53.396;6.722;2023-12-22T08:22:48;18.48;;;2.67;;
52894;SDS011;38759;53.396;6.722;2023-12-22T08:25:14;25.25;;;2.80;;
52894;SDS011;38759;53.396;6.722;2023-12-22T08:27:40;22.92;;;2.58;;
52894;SDS011;38759;53.396;6.722;2023-12-22T08:30:07;28.13;;;3.55;;
52894;SDS011;38759;53.396;6.722;2023-12-22T08:32:34;24.27;;;2.78;;
52894;SDS011;38759;53.396;6.722;2023-12-22T08:35:00;32.40;;;3.53;;
52894;SDS011;38759;53.396;6.722;2023-12-22T08:37:25;34.42;;;3.97;;
52894;SDS011;38759;53.396;6.722;2023-12-22T08:39:51;27.77;;;3.47;;
52894;SDS011;38759;53.396;6.722;2023-12-22T08:42:17;25.30;;;2.88;;
52894;SDS011;38759;53.396;6.722;2023-12-22T08:44:43;33.28;;;3.70;;
52894;SDS011;38759;53.396;6.722;2023-12-22T08:47:09;32.75;;;3.55;;
52894;SDS011;38759;53.396;6.722;2023-12-22T08:49:34;34.58;;;4.05;;
52894;SDS011;38759;53.396;6.722;2023-12-22T08:52:00;27.80;;;3.97;;
52894;SDS011;38759;53.396;6.722;2023-12-22T08:54:28;17.75;;;2.55;;
52894;SDS011;38759;53.396;6.722;2023-12-22T08:56:54;29.55;;;3.65;;
52894;SDS011;38759;53.396;6.722;2023-12-22T08:59:20;36.05;;;4.38;;
52894;SDS011;38759;53.396;6.722;2023-12-22T09:01:46;22.83;;;4.72;;
52894;SDS011;38759;53.396;6.722;2023-12-22T09:04:11;38.47;;;3.53;;
52894;SDS011;38759;53.396;6.722;2023-12-22T09:06:37;25.77;;;3.40;;
52894;SDS011;38759;53.396;6.722;2023-12-22T09:09:03;35.38;;;3.95;;
52894;SDS011;38759;53.396;6.722;2023-12-22T09:11:29;33.58;;;3.92;;
52894;SDS011;38759;53.396;6.722;2023-12-22T09:13:55;28.38;;;3.53;;
52894;SDS011;38759;53.396;6.722;2023-12-22T09:16:21;36.70;;;4.20;;
52894;SDS011;38759;53.396;6.722;2023-12-22T09:18:47;38.80;;;3.80;;
52894;SDS011;38759;53.396;6.722;2023-12-22T09:21:13;35.30;;;3.78;;
52894;SDS011;38759;53.396;6.722;2023-12-22T09:23:39;45.58;;;4.47;;
52894;SDS011;38759;53.396;6.722;2023-12-22T09:26:04;31.20;;;3.47;;
52894;SDS011;38759;53.396;6.722;2023-12-22T09:28:30;28.15;;;3.30;;
52894;SDS011;38759;53.396;6.722;2023-12-22T09:30:56;32.38;;;3.45;;
52894;SDS011;38759;53.396;6.722;2023-12-22T09:33:21;30.65;;;3.40;;
52894;SDS011;38759;53.396;6.722;2023-12-22T09:35:48;42.15;;;3.92;;
52894;SDS011;38759;53.396;6.722;2023-12-22T09:38:13;29.48;;;4.47;;
52894;SDS011;38759;53.396;6.722;2023-12-22T09:40:39;33.42;;;3.42;;
52894;SDS011;38759;53.396;6.722;2023-12-22T09:43:05;29.40;;;2.88;;
52894;SDS011;38759;53.396;6.722;2023-12-22T09:45:32;28.58;;;3.05;;
52894;SDS011;38759;53.396;6.722;2023-12-22T09:48:03;19.60;;;2.30;;
52894;SDS011;38759;53.396;6.722;2023-12-22T09:50:31;33.50;;;2.97;;
52894;SDS011;38759;53.396;6.722;2023-12-22T09:52:59;32.05;;;3.38;;
52894;SDS011;38759;53.396;6.722;2023-12-22T09:55:26;32.28;;;2.95;;
52894;SDS011;38759;53.396;6.722;2023-12-22T09:57:53;27.17;;;3.40;;
52894;SDS011;38759;53.396;6.722;2023-12-22T10:00:21;34.90;;;2.53;;
52894;SDS011;38759;53.396;6.722;2023-12-22T10:02:48;32.75;;;3.47;;
52894;SDS011;38759;53.396;6.722;2023-12-22T10:05:14;29.63;;;3.60;;
52894;SDS011;38759;53.396;6.722;2023-12-22T10:07:41;37.00;;;4.28;;
52894;SDS011;38759;53.396;6.722;2023-12-22T10:10:09;22.73;;;2.92;;
52894;SDS011;38759;53.396;6.722;2023-12-22T10:12:36;19.63;;;2.65;;
52894;SDS011;38759;53.396;6.722;2023-12-22T10:15:04;27.55;;;3.03;;
52894;SDS011;38759;53.396;6.722;2023-12-22T10:17:32;22.17;;;2.63;;
52894;SDS011;38759;53.396;6.722;2023-12-22T10:19:59;21.98;;;2.53;;
52894;SDS011;38759;53.396;6.722;2023-12-22T10:22:25;21.73;;;3.22;;
52894;SDS011;38759;53.396;6.722;2023-12-22T10:24:51;20.23;;;2.97;;
52894;SDS011;38759;53.396;6.722;2023-12-22T10:27:17;30.10;;;3.45;;
52894;SDS011;38759;53.396;6.722;2023-12-22T10:29:51;34.55;;;3.30;;
52894;SDS011;38759;53.396;6.722;2023-12-22T10:32:20;23.48;;;2.88;;
52894;SDS011;38759;53.396;6.722;2023-12-22T10:34:46;25.92;;;4.00;;
52894;SDS011;38759;53.396;6.722;2023-12-22T10:37:13;23.27;;;2.80;;
52894;SDS011;38759;53.396;6.722;2023-12-22T10:39:38;21.92;;;2.30;;
52894;SDS011;38759;53.396;6.722;2023-12-22T10:42:04;27.48;;;3.58;;
52894;SDS011;38759;53.396;6.722;2023-12-22T10:44:30;23.55;;;2.72;;
52894;SDS011;38759;53.396;6.722;2023-12-22T10:46:56;30.10;;;2.90;;
52894;SDS011;38759;53.396;6.722;2023-12-22T10:49:22;22.27;;;2.83;;
52894;SDS011;38759;53.396;6.722;2023-12-22T10:51:49;21.15;;;2.95;;
52894;SDS011;38759;53.396;6.722;2023-12-22T10:54:15;43.47;;;3.60;;
52894;SDS011;38759;53.396;6.722;2023-12-22T10:56:42;24.30;;;3.25;;
52894;SDS011;38759;53.396;6.722;2023-12-22T10:59:08;27.45;;;2.90;;
52894;SDS011;38759;53.396;6.722;2023-12-22T11:01:35;23.38;;;2.67;;
52894;SDS011;38759;53.396;6.722;2023-12-22T11:04:05;30.17;;;3.13;;
52894;SDS011;38759;53.396;6.722;2023-12-22T11:06:35;32.47;;;3.60;;
52894;SDS011;38759;53.396;6.722;2023-12-22T11:09:08;33.42;;;3.55;;
52894;SDS011;38759;53.396;6.722;2023-12-22T11:11:38;25.75;;;2.60;;
52894;SDS011;38759;53.396;6.722;2023-12-22T11:14:05;26.27;;;2.65;;
52894;SDS011;38759;53.396;6.722;2023-12-22T11:16:33;23.00;;;2.70;;
52894;SDS011;38759;53.396;6.722;2023-12-22T11:19:00;22.13;;;2.95;;
52894;SDS011;38759;53.396;6.722;2023-12-22T11:21:30;27.20;;;2.92;;
52894;SDS011;38759;53.396;6.722;2023-12-22T11:23:56;18.20;;;3.20;;
52894;SDS011;38759;53.396;6.722;2023-12-22T11:26:22;29.10;;;3.83;;
52894;SDS011;38759;53.396;6.722;2023-12-22T11:28:50;30.45;;;3.17;;
52894;SDS011;38759;53.396;6.722;2023-12-22T11:31:17;23.80;;;3.47;;
52894;SDS011;38759;53.396;6.722;2023-12-22T11:33:47;40.92;;;3.22;;
52894;SDS011;38759;53.396;6.722;2023-12-22T11:36:15;22.00;;;2.85;;
52894;SDS011;38759;53.396;6.722;2023-12-22T11:38:42;26.60;;;2.63;;
52894;SDS011;38759;53.396;6.722;2023-12-22T11:41:10;29.67;;;3.15;;
52894;SDS011;38759;53.396;6.722;2023-12-22T11:43:39;23.95;;;2.78;;
52894;SDS011;38759;53.396;6.722;2023-12-22T11:46:06;23.10;;;2.55;;
52894;SDS011;38759;53.396;6.722;2023-12-22T11:48:33;22.00;;;2.60;;
52894;SDS011;38759;53.396;6.722;2023-12-22T11:50:59;25.40;;;2.53;;
52894;SDS011;38759;53.396;6.722;2023-12-22T11:53:29;25.67;;;1.92;;
52894;SDS011;38759;53.396;6.722;2023-12-22T11:55:56;18.48;;;2.20;;
52894;SDS011;38759;53.396;6.722;2023-12-22T11:58:34;17.00;;;2.40;;
52894;SDS011;38759;53.396;6.722;2023-12-22T12:01:11;21.40;;;2.97;;
52894;SDS011;38759;53.396;6.722;2023-12-22T12:03:40;23.80;;;2.83;;
52894;SDS011;38759;53.396;6.722;2023-12-22T12:08:36;25.77;;;2.65;;
52894;SDS011;38759;53.396;6.722;2023-12-22T12:11:02;18.73;;;2.42;;
52894;SDS011;38759;53.396;6.722;2023-12-22T12:13:28;31.48;;;3.28;;
52894;SDS011;38759;53.396;6.722;2023-12-22T12:15:58;9.60;;;1.95;;
52894;SDS011;38759;53.396;6.722;2023-12-22T12:18:29;13.48;;;1.85;;
52894;SDS011;38759;53.396;6.722;2023-12-22T12:20:56;25.88;;;2.83;;
52894;SDS011;38759;53.396;6.722;2023-12-22T12:23:25;17.40;;;3.13;;
52894;SDS011;38759;53.396;6.722;2023-12-22T12:25:54;23.15;;;2.42;;
52894;SDS011;38759;53.396;6.722;2023-12-22T12:28:31;22.00;;;2.63;;
52894;SDS011;38759;53.396;6.722;2023-12-22T12:31:02;24.00;;;2.28;;
52894;SDS011;38759;53.396;6.722;2023-12-22T12:33:29;18.60;;;2.70;;
52894;SDS011;38759;53.396;6.722;2023-12-22T12:35:56;22.20;;;2.60;;
52894;SDS011;38759;53.396;6.722;2023-12-22T12:38:43;28.48;;;3.03;;
52894;SDS011;38759;53.396;6.722;2023-12-22T12:41:29;19.45;;;2.45;;
52894;SDS011;38759;53.396;6.722;2023-12-22T12:43:59;17.55;;;2.33;;
52894;SDS011;38759;53.396;6.722;2023-12-22T12:46:32;17.63;;;2.25;;
52894;SDS011;38759;53.396;6.722;2023-12-22T12:49:05;22.85;;;2.88;;
52894;SDS011;38759;53.396;6.722;2023-12-22T12:51:36;23.20;;;3.08;;
52894;SDS011;38759;53.396;6.722;2023-12-22T12:54:03;16.35;;;2.72;;
52894;SDS011;38759;53.396;6.722;2023-12-22T12:56:36;28.15;;;2.72;;
52894;SDS011;38759;53.396;6.722;2023-12-22T12:59:06;19.15;;;2.65;;
52894;SDS011;38759;53.396;6.722;2023-12-22T13:01:37;15.98;;;2.28;;
52894;SDS011;38759;53.396;6.722;2023-12-22T13:04:03;16.38;;;2.17;;
52894;SDS011;38759;53.396;6.722;2023-12-22T13:06:29;15.68;;;2.65;;
52894;SDS011;38759;53.396;6.722;2023-12-22T13:08:55;15.30;;;2.17;;
52894;SDS011;38759;53.396;6.722;2023-12-22T13:11:29;9.65;;;1.45;;
52894;SDS011;38759;53.396;6.722;2023-12-22T13:13:56;18.08;;;2.38;;
52894;SDS011;38759;53.396;6.722;2023-12-22T13:16:23;13.57;;;1.80;;
52894;SDS011;38759;53.396;6.722;2023-12-22T13:18:56;19.02;;;2.45;;
52894;SDS011;38759;53.396;6.722;2023-12-22T13:21:23;19.60;;;2.72;;
52894;SDS011;38759;53.396;6.722;2023-12-22T13:24:11;15.60;;;2.30;;
52894;SDS011;38759;53.396;6.722;2023-12-22T13:26:37;16.13;;;1.85;;
52894;SDS011;38759;53.396;6.722;2023-12-22T13:29:07;15.80;;;1.67;;
52894;SDS011;38759;53.396;6.722;2023-12-22T13:31:35;12.13;;;1.48;;
52894;SDS011;38759;53.396;6.722;2023-12-22T13:34:02;19.92;;;2.20;;
52894;SDS011;38759;53.396;6.722;2023-12-22T13:36:33;12.98;;;1.60;;
52894;SDS011;38759;53.396;6.722;2023-12-22T13:39:00;13.15;;;1.75;;
52894;SDS011;38759;53.396;6.722;2023-12-22T13:41:26;10.98;;;1.52;;
52894;SDS011;38759;53.396;6.722;2023-12-22T13:43:51;19.77;;;2.03;;
52894;SDS011;38759;53.396;6.722;2023-12-22T13:46:17;10.65;;;1.27;;
52894;SDS011;38759;53.396;6.722;2023-12-22T13:48:43;13.10;;;1.92;;
52894;SDS011;38759;53.396;6.722;2023-12-22T13:51:10;11.88;;;1.45;;
52894;SDS011;38759;53.396;6.722;2023-12-22T13:53:46;17.02;;;1.73;;
52894;SDS011;38759;53.396;6.722;2023-12-22T13:56:12;17.98;;;1.70;;
52894;SDS011;38759;53.396;6.722;2023-12-22T13:58:45;13.43;;;1.58;;
52894;SDS011;38759;53.396;6.722;2023-12-22T14:01:15;15.63;;;1.17;;
52894;SDS011;38759;53.396;6.722;2023-12-22T14:03:44;7.40;;;0.75;;
52894;SDS011;38759;53.396;6.722;2023-12-22T14:06:11;15.45;;;1.17;;
52894;SDS011;38759;53.396;6.722;2023-12-22T14:08:40;8.45;;;0.75;;
52894;SDS011;38759;53.396;6.722;2023-12-22T14:11:06;15.48;;;1.35;;
52894;SDS011;38759;53.396;6.722;2023-12-22T14:13:32;8.93;;;1.55;;
52894;SDS011;38759;53.396;6.722;2023-12-22T14:15:59;13.88;;;1.40;;
52894;SDS011;38759;53.396;6.722;2023-12-22T14:18:25;9.55;;;1.35;;
52894;SDS011;38759;53.396;6.722;2023-12-22T14:20:50;16.80;;;1.20;;
52894;SDS011;38759;53.396;6.722;2023-12-22T14:23:16;21.25;;;1.45;;
52894;SDS011;38759;53.396;6.722;2023-12-22T14:25:42;10.02;;;1.20;;
52894;SDS011;38759;53.396;6.722;2023-12-22T14:28:08;12.35;;;1.38;;
52894;SDS011;38759;53.396;6.722;2023-12-22T14:30:34;22.08;;;1.70;;
52894;SDS011;38759;53.396;6.722;2023-12-22T14:32:59;12.10;;;1.10;;
52894;SDS011;38759;53.396;6.722;2023-12-22T14:35:25;9.45;;;1.00;;
52894;SDS011;38759;53.396;6.722;2023-12-22T14:37:51;11.45;;;1.27;;
52894;SDS011;38759;53.396;6.722;2023-12-22T14:40:16;9.25;;;1.40;;
52894;SDS011;38759;53.396;6.722;2023-12-22T14:42:43;10.07;;;1.33;;